sensor_id;sensor_type;location;lat;lon;timestamp;temperature;humidity
7648;DHT22;3866;48.020;11.720;2024-02-23T00:02:13;6.30;99.90
7648;DHT22;3866;48.020;11.720;2024-02-23T00:04:42;6.30;99.90
7648;DHT22;3866;48.020;11.720;2024-02-23T00:07:09;6.30;99.90
7648;DHT22;3866;48.020;11.720;2024-02-23T00:09:35;6.30;99.90
7648;DHT22;3866;48.020;11.720;2024-02-23T00:12:03;6.30;99.90
7648;DHT22;3866;48.020;11.720;2024-02-23T00:14:30;6.40;99.90
7648;DHT22;3866;48.020;11.720;2024-02-23T00:16:58;6.30;99.90
7648;DHT22;3866;48.020;11.720;2024-02-23T00:19:27;6.40;99.90
7648;DHT22;3866;48.020;11.720;2024-02-23T00:21:55;6.30;99.90
7648;DHT22;3866;48.020;11.720;2024-02-23T00:24:22;6.40;99.90
7648;DHT22;3866;48.020;11.720;2024-02-23T00:26:49;6.40;99.90
7648;DHT22;3866;48.020;11.720;2024-02-23T00:29:17;6.40;99.90
7648;DHT22;3866;48.020;11.720;2024-02-23T00:31:44;6.30;99.90
7648;DHT22;3866;48.020;11.720;2024-02-23T00:34:11;6.30;99.90
7648;DHT22;3866;48.020;11.720;2024-02-23T00:36:39;6.30;99.90
7648;DHT22;3866;48.020;11.720;2024-02-23T00:39:08;6.30;99.90
7648;DHT22;3866;48.020;11.720;2024-02-23T00:41:35;6.20;99.90
7648;DHT22;3866;48.020;11.720;2024-02-23T00:44:02;6.10;99.90
7648;DHT22;3866;48.020;11.720;2024-02-23T00:46:29;6.10;99.90
7648;DHT22;3866;48.020;11.720;2024-02-23T00:48:56;6.10;99.90
7648;DHT22;3866;48.020;11.720;2024-02-23T00:51:23;6.10;99.90
7648;DHT22;3866;48.020;11.720;2024-02-23T00:53:50;6.00;99.90
7648;DHT22;3866;48.020;11.720;2024-02-23T00:56:18;6.10;99.90
7648;DHT22;3866;48.020;11.720;2024-02-23T00:58:45;6.00;99.90
7648;DHT22;3866;48.020;11.720;2024-02-23T01:01:12;6.00;99.90
7648;DHT22;3866;48.020;11.720;2024-02-23T01:03:39;6.00;99.90
7648;DHT22;3866;48.020;11.720;2024-02-23T01:06:06;6.10;99.90
7648;DHT22;3866;48.020;11.720;2024-02-23T01:08:33;6.10;99.90
7648;DHT22;3866;48.020;11.720;2024-02-23T01:11:01;6.10;99.90
7648;DHT22;3866;48.020;11.720;2024-02-23T01:13:29;6.10;99.90
7648;DHT22;3866;48.020;11.720;2024-02-23T01:15:56;6.00;99.90
7648;DHT22;3866;48.020;11.720;2024-02-23T01:18:23;6.00;99.90
7648;DHT22;3866;48.020;11.720;2024-02-23T01:20:50;6.10;99.90
7648;DHT22;3866;48.020;11.720;2024-02-23T01:23:16;6.10;99.90
7648;DHT22;3866;48.020;11.720;2024-02-23T01:25:43;6.10;99.90
7648;DHT22;3866;48.020;11.720;2024-02-23T01:28:10;6.10;99.90
7648;DHT22;3866;48.020;11.720;2024-02-23T01:30:38;6.00;99.90
7648;DHT22;3866;48.020;11.720;2024-02-23T01:33:05;6.00;99.90
7648;DHT22;3866;48.020;11.720;2024-02-23T01:35:32;5.90;99.90
7648;DHT22;3866;48.020;11.720;2024-02-23T01:37:59;5.90;99.90
7648;DHT22;3866;48.020;11.720;2024-02-23T01:40:26;5.90;99.90
7648;DHT22;3866;48.020;11.720;2024-02-23T01:43:01;5.80;99.90
7648;DHT22;3866;48.020;11.720;2024-02-23T01:45:28;5.80;99.90
7648;DHT22;3866;48.020;11.720;2024-02-23T01:47:56;5.80;99.90
7648;DHT22;3866;48.020;11.720;2024-02-23T01:50:24;5.80;99.90
7648;DHT22;3866;48.020;11.720;2024-02-23T01:52:51;5.70;99.90
7648;DHT22;3866;48.020;11.720;2024-02-23T01:55:19;5.70;99.90
7648;DHT22;3866;48.020;11.720;2024-02-23T01:57:47;5.70;99.90
7648;DHT22;3866;48.020;11.720;2024-02-23T02:00:16;5.70;99.90
7648;DHT22;3866;48.020;11.720;2024-02-23T02:02:43;5.70;99.90
7648;DHT22;3866;48.020;11.720;2024-02-23T02:05:12;5.70;99.90
7648;DHT22;3866;48.020;11.720;2024-02-23T02:07:40;5.70;99.90
7648;DHT22;3866;48.020;11.720;2024-02-23T02:10:09;5.70;99.90
7648;DHT22;3866;48.020;11.720;2024-02-23T02:12:36;5.70;99.90
7648;DHT22;3866;48.020;11.720;2024-02-23T02:15:04;5.60;99.90
7648;DHT22;3866;48.020;11.720;2024-02-23T02:17:31;5.60;99.90
7648;DHT22;3866;48.020;11.720;2024-02-23T02:19:59;5.70;99.90
7648;DHT22;3866;48.020;11.720;2024-02-23T02:22:32;5.70;99.90
7648;DHT22;3866;48.020;11.720;2024-02-23T02:24:59;5.70;99.90
7648;DHT22;3866;48.020;11.720;2024-02-23T02:27:26;5.70;99.90
7648;DHT22;3866;48.020;11.720;2024-02-23T02:29:53;5.70;99.90
7648;DHT22;3866;48.020;11.720;2024-02-23T02:32:20;5.60;99.90
7648;DHT22;3866;48.020;11.720;2024-02-23T02:34:46;5.70;99.90
7648;DHT22;3866;48.020;11.720;2024-02-23T02:37:13;5.60;99.90
7648;DHT22;3866;48.020;11.720;2024-02-23T02:39:42;5.70;99.90
7648;DHT22;3866;48.020;11.720;2024-02-23T02:42:09;5.70;99.90
7648;DHT22;3866;48.020;11.720;2024-02-23T02:44:36;5.70;99.90
7648;DHT22;3866;48.020;11.720;2024-02-23T02:47:02;5.70;99.90
7648;DHT22;3866;48.020;11.720;2024-02-23T02:49:29;5.70;99.90
7648;DHT22;3866;48.020;11.720;2024-02-23T02:51:58;5.70;99.90
7648;DHT22;3866;48.020;11.720;2024-02-23T02:54:25;5.70;99.90
7648;DHT22;3866;48.020;11.720;2024-02-23T02:56:53;5.60;99.90
7648;DHT22;3866;48.020;11.720;2024-02-23T02:59:20;5.60;99.90
7648;DHT22;3866;48.020;11.720;2024-02-23T03:01:47;5.60;99.90
7648;DHT22;3866;48.020;11.720;2024-02-23T03:04:14;5.60;99.90
7648;DHT22;3866;48.020;11.720;2024-02-23T03:06:41;5.60;99.90
7648;DHT22;3866;48.020;11.720;2024-02-23T03:09:08;5.60;99.90
7648;DHT22;3866;48.020;11.720;2024-02-23T03:11:36;5.60;99.90
7648;DHT22;3866;48.020;11.720;2024-02-23T03:14:04;5.60;99.90
7648;DHT22;3866;48.020;11.720;2024-02-23T03:16:32;5.60;99.90
7648;DHT22;3866;48.020;11.720;2024-02-23T03:18:59;5.50;99.90
7648;DHT22;3866;48.020;11.720;2024-02-23T03:21:26;5.50;99.90
7648;DHT22;3866;48.020;11.720;2024-02-23T03:23:53;5.50;99.90
7648;DHT22;3866;48.020;11.720;2024-02-23T03:26:20;5.50;99.90
7648;DHT22;3866;48.020;11.720;2024-02-23T03:28:47;5.50;99.90
7648;DHT22;3866;48.020;11.720;2024-02-23T03:31:16;5.50;99.90
7648;DHT22;3866;48.020;11.720;2024-02-23T03:33:43;5.50;99.90
7648;DHT22;3866;48.020;11.720;2024-02-23T03:36:09;5.50;99.90
7648;DHT22;3866;48.020;11.720;2024-02-23T03:38:36;5.40;99.90
7648;DHT22;3866;48.020;11.720;2024-02-23T03:41:04;5.40;99.90
7648;DHT22;3866;48.020;11.720;2024-02-23T03:43:32;5.40;99.90
7648;DHT22;3866;48.020;11.720;2024-02-23T03:45:59;5.40;99.90
7648;DHT22;3866;48.020;11.720;2024-02-23T03:48:27;5.40;99.90
7648;DHT22;3866;48.020;11.720;2024-02-23T03:50:54;5.40;99.90
7648;DHT22;3866;48.020;11.720;2024-02-23T03:53:21;5.30;99.90
7648;DHT22;3866;48.020;11.720;2024-02-23T03:55:48;5.30;99.90
7648;DHT22;3866;48.020;11.720;2024-02-23T03:58:15;5.30;99.90
7648;DHT22;3866;48.020;11.720;2024-02-23T04:00:43;5.30;99.90
7648;DHT22;3866;48.020;11.720;2024-02-23T04:03:10;5.30;99.90
7648;DHT22;3866;48.020;11.720;2024-02-23T04:05:38;5.30;99.90
7648;DHT22;3866;48.020;11.720;2024-02-23T04:08:06;5.20;99.90
7648;DHT22;3866;48.020;11.720;2024-02-23T04:10:34;5.20;99.90
7648;DHT22;3866;48.020;11.720;2024-02-23T04:13:01;5.20;99.90
7648;DHT22;3866;48.020;11.720;2024-02-23T04:15:28;5.20;99.90
7648;DHT22;3866;48.020;11.720;2024-02-23T04:17:55;5.10;99.90
7648;DHT22;3866;48.020;11.720;2024-02-23T04:20:22;5.10;99.90
7648;DHT22;3866;48.020;11.720;2024-02-23T04:22:50;5.10;99.90
7648;DHT22;3866;48.020;11.720;2024-02-23T04:25:17;5.10;99.90
7648;DHT22;3866;48.020;11.720;2024-02-23T04:27:44;5.10;99.90
7648;DHT22;3866;48.020;11.720;2024-02-23T04:30:11;5.10;99.90
7648;DHT22;3866;48.020;11.720;2024-02-23T04:32:39;5.10;99.90
7648;DHT22;3866;48.020;11.720;2024-02-23T04:35:06;5.00;99.90
7648;DHT22;3866;48.020;11.720;2024-02-23T04:37:33;5.00;99.90
7648;DHT22;3866;48.020;11.720;2024-02-23T04:40:02;5.00;99.90
7648;DHT22;3866;48.020;11.720;2024-02-23T04:42:29;5.00;99.90
7648;DHT22;3866;48.020;11.720;2024-02-23T04:44:56;5.00;99.90
7648;DHT22;3866;48.020;11.720;2024-02-23T04:47:23;5.00;99.90
7648;DHT22;3866;48.020;11.720;2024-02-23T04:49:50;5.00;99.90
7648;DHT22;3866;48.020;11.720;2024-02-23T04:52:17;4.90;99.90
7648;DHT22;3866;48.020;11.720;2024-02-23T04:54:44;4.90;99.90
7648;DHT22;3866;48.020;11.720;2024-02-23T04:57:12;4.90;99.90
7648;DHT22;3866;48.020;11.720;2024-02-23T04:59:39;4.80;99.90
7648;DHT22;3866;48.020;11.720;2024-02-23T05:02:06;4.80;99.90
7648;DHT22;3866;48.020;11.720;2024-02-23T05:04:33;4.80;99.90
7648;DHT22;3866;48.020;11.720;2024-02-23T05:06:59;4.80;99.90
7648;DHT22;3866;48.020;11.720;2024-02-23T05:09:27;4.70;99.90
7648;DHT22;3866;48.020;11.720;2024-02-23T05:11:54;4.70;99.90
7648;DHT22;3866;48.020;11.720;2024-02-23T05:14:23;4.60;99.90
7648;DHT22;3866;48.020;11.720;2024-02-23T05:16:50;4.70;99.90
7648;DHT22;3866;48.020;11.720;2024-02-23T05:19:16;4.70;99.90
7648;DHT22;3866;48.020;11.720;2024-02-23T05:21:43;4.60;99.90
7648;DHT22;3866;48.020;11.720;2024-02-23T05:24:11;4.50;99.90
7648;DHT22;3866;48.020;11.720;2024-02-23T05:26:38;4.60;99.90
7648;DHT22;3866;48.020;11.720;2024-02-23T05:29:05;4.60;99.90
7648;DHT22;3866;48.020;11.720;2024-02-23T05:31:46;4.60;99.90
7648;DHT22;3866;48.020;11.720;2024-02-23T05:34:13;4.60;99.90
7648;DHT22;3866;48.020;11.720;2024-02-23T05:36:40;4.60;99.90
7648;DHT22;3866;48.020;11.720;2024-02-23T05:39:07;4.50;99.90
7648;DHT22;3866;48.020;11.720;2024-02-23T05:41:35;4.40;99.90
7648;DHT22;3866;48.020;11.720;2024-02-23T05:44:03;4.40;99.90
7648;DHT22;3866;48.020;11.720;2024-02-23T05:46:31;4.50;99.90
7648;DHT22;3866;48.020;11.720;2024-02-23T05:48:59;4.50;99.90
7648;DHT22;3866;48.020;11.720;2024-02-23T05:51:28;4.60;99.90
7648;DHT22;3866;48.020;11.720;2024-02-23T05:53:55;4.50;99.90
7648;DHT22;3866;48.020;11.720;2024-02-23T05:56:22;4.40;99.90
7648;DHT22;3866;48.020;11.720;2024-02-23T05:58:50;4.40;99.90
7648;DHT22;3866;48.020;11.720;2024-02-23T06:01:17;4.40;99.90
7648;DHT22;3866;48.020;11.720;2024-02-23T06:03:44;4.40;99.90
7648;DHT22;3866;48.020;11.720;2024-02-23T06:06:12;4.40;99.90
7648;DHT22;3866;48.020;11.720;2024-02-23T06:08:39;4.40;99.90
7648;DHT22;3866;48.020;11.720;2024-02-23T06:11:06;4.50;99.90
7648;DHT22;3866;48.020;11.720;2024-02-23T06:13:35;4.40;99.90
7648;DHT22;3866;48.020;11.720;2024-02-23T06:16:03;4.30;99.90
7648;DHT22;3866;48.020;11.720;2024-02-23T06:18:29;4.30;99.90
7648;DHT22;3866;48.020;11.720;2024-02-23T06:20:56;4.30;99.90
7648;DHT22;3866;48.020;11.720;2024-02-23T06:23:24;4.30;99.90
7648;DHT22;3866;48.020;11.720;2024-02-23T06:25:51;4.30;99.90
7648;DHT22;3866;48.020;11.720;2024-02-23T06:28:18;4.30;99.90
7648;DHT22;3866;48.020;11.720;2024-02-23T06:30:45;4.30;99.90
7648;DHT22;3866;48.020;11.720;2024-02-23T06:33:12;4.30;99.90
7648;DHT22;3866;48.020;11.720;2024-02-23T06:35:39;4.40;99.90
7648;DHT22;3866;48.020;11.720;2024-02-23T06:38:05;4.40;99.90
7648;DHT22;3866;48.020;11.720;2024-02-23T06:40:34;4.30;99.90
7648;DHT22;3866;48.020;11.720;2024-02-23T06:43:00;4.40;99.90
7648;DHT22;3866;48.020;11.720;2024-02-23T06:45:27;4.40;99.90
7648;DHT22;3866;48.020;11.720;2024-02-23T06:47:54;4.40;99.90
7648;DHT22;3866;48.020;11.720;2024-02-23T06:50:21;4.40;99.90
7648;DHT22;3866;48.020;11.720;2024-02-23T06:52:48;4.40;99.90
7648;DHT22;3866;48.020;11.720;2024-02-23T06:55:15;4.40;99.90
7648;DHT22;3866;48.020;11.720;2024-02-23T06:57:44;4.40;99.90
7648;DHT22;3866;48.020;11.720;2024-02-23T07:00:13;4.40;99.90
7648;DHT22;3866;48.020;11.720;2024-02-23T07:02:40;4.40;99.90
7648;DHT22;3866;48.020;11.720;2024-02-23T07:05:07;4.30;99.90
7648;DHT22;3866;48.020;11.720;2024-02-23T07:07:35;4.40;99.90
7648;DHT22;3866;48.020;11.720;2024-02-23T07:10:02;4.40;99.90
7648;DHT22;3866;48.020;11.720;2024-02-23T07:12:29;4.40;99.90
7648;DHT22;3866;48.020;11.720;2024-02-23T07:14:57;4.30;99.90
7648;DHT22;3866;48.020;11.720;2024-02-23T07:17:24;4.30;99.90
7648;DHT22;3866;48.020;11.720;2024-02-23T07:19:51;4.30;99.90
7648;DHT22;3866;48.020;11.720;2024-02-23T07:22:18;4.30;99.90
7648;DHT22;3866;48.020;11.720;2024-02-23T07:24:46;4.40;99.90
7648;DHT22;3866;48.020;11.720;2024-02-23T07:27:13;4.40;99.90
7648;DHT22;3866;48.020;11.720;2024-02-23T07:29:39;4.30;99.90
7648;DHT22;3866;48.020;11.720;2024-02-23T07:32:08;4.40;99.90
7648;DHT22;3866;48.020;11.720;2024-02-23T07:34:35;4.40;99.90
7648;DHT22;3866;48.020;11.720;2024-02-23T07:37:01;4.40;99.90
7648;DHT22;3866;48.020;11.720;2024-02-23T07:39:29;4.30;99.90
7648;DHT22;3866;48.020;11.720;2024-02-23T07:41:56;4.30;99.90
7648;DHT22;3866;48.020;11.720;2024-02-23T07:44:23;4.30;99.90
7648;DHT22;3866;48.020;11.720;2024-02-23T07:46:51;4.40;99.90
7648;DHT22;3866;48.020;11.720;2024-02-23T07:49:21;4.30;99.90
7648;DHT22;3866;48.020;11.720;2024-02-23T07:51:48;4.30;99.90
7648;DHT22;3866;48.020;11.720;2024-02-23T07:54:15;4.30;99.90
7648;DHT22;3866;48.020;11.720;2024-02-23T07:56:42;4.30;99.90
7648;DHT22;3866;48.020;11.720;2024-02-23T07:59:10;4.30;99.90
7648;DHT22;3866;48.020;11.720;2024-02-23T08:01:37;4.40;99.90
7648;DHT22;3866;48.020;11.720;2024-02-23T08:04:05;4.40;99.90
7648;DHT22;3866;48.020;11.720;2024-02-23T08:06:34;4.40;99.90
7648;DHT22;3866;48.020;11.720;2024-02-23T08:09:00;4.40;99.90
7648;DHT22;3866;48.020;11.720;2024-02-23T08:11:28;4.40;99.90
7648;DHT22;3866;48.020;11.720;2024-02-23T08:13:55;4.40;99.90
7648;DHT22;3866;48.020;11.720;2024-02-23T08:16:22;4.50;99.90
7648;DHT22;3866;48.020;11.720;2024-02-23T08:18:49;4.60;99.90
7648;DHT22;3866;48.020;11.720;2024-02-23T08:21:16;4.50;99.90
7648;DHT22;3866;48.020;11.720;2024-02-23T08:23:44;4.60;99.90
7648;DHT22;3866;48.020;11.720;2024-02-23T08:26:11;4.60;99.90
7648;DHT22;3866;48.020;11.720;2024-02-23T08:28:38;4.60;99.90
7648;DHT22;3866;48.020;11.720;2024-02-23T08:31:05;4.50;99.90
7648;DHT22;3866;48.020;11.720;2024-02-23T08:33:32;4.60;99.90
7648;DHT22;3866;48.020;11.720;2024-02-23T08:35:59;4.60;99.90
7648;DHT22;3866;48.020;11.720;2024-02-23T08:38:26;4.70;99.90
7648;DHT22;3866;48.020;11.720;2024-02-23T08:40:54;4.60;99.90
7648;DHT22;3866;48.020;11.720;2024-02-23T08:43:21;4.70;99.90
7648;DHT22;3866;48.020;11.720;2024-02-23T08:45:48;4.70;99.90
7648;DHT22;3866;48.020;11.720;2024-02-23T08:48:15;4.80;99.90
7648;DHT22;3866;48.020;11.720;2024-02-23T08:50:42;4.70;99.90
7648;DHT22;3866;48.020;11.720;2024-02-23T08:53:09;4.80;99.90
7648;DHT22;3866;48.020;11.720;2024-02-23T08:55:36;4.90;99.90
7648;DHT22;3866;48.020;11.720;2024-02-23T08:58:04;5.00;99.90
7648;DHT22;3866;48.020;11.720;2024-02-23T09:00:32;5.00;99.90
7648;DHT22;3866;48.020;11.720;2024-02-23T09:02:59;4.90;99.90
7648;DHT22;3866;48.020;11.720;2024-02-23T09:05:26;4.80;99.90
7648;DHT22;3866;48.020;11.720;2024-02-23T09:07:53;4.70;99.90
7648;DHT22;3866;48.020;11.720;2024-02-23T09:10:20;4.70;99.90
7648;DHT22;3866;48.020;11.720;2024-02-23T09:12:47;4.70;99.90
7648;DHT22;3866;48.020;11.720;2024-02-23T09:15:15;4.60;99.90
7648;DHT22;3866;48.020;11.720;2024-02-23T09:17:42;4.50;99.90
7648;DHT22;3866;48.020;11.720;2024-02-23T09:20:10;4.50;99.90
7648;DHT22;3866;48.020;11.720;2024-02-23T09:22:37;4.50;99.90
7648;DHT22;3866;48.020;11.720;2024-02-23T09:25:06;4.50;99.90
7648;DHT22;3866;48.020;11.720;2024-02-23T09:27:34;4.40;99.90
7648;DHT22;3866;48.020;11.720;2024-02-23T09:30:02;4.40;99.90
7648;DHT22;3866;48.020;11.720;2024-02-23T09:32:31;4.40;99.90
7648;DHT22;3866;48.020;11.720;2024-02-23T09:34:58;4.40;99.90
7648;DHT22;3866;48.020;11.720;2024-02-23T09:37:25;4.40;99.90
7648;DHT22;3866;48.020;11.720;2024-02-23T09:39:51;4.30;99.90
7648;DHT22;3866;48.020;11.720;2024-02-23T09:42:22;4.30;99.90
7648;DHT22;3866;48.020;11.720;2024-02-23T09:44:57;4.30;99.90
7648;DHT22;3866;48.020;11.720;2024-02-23T09:47:24;4.20;99.90
7648;DHT22;3866;48.020;11.720;2024-02-23T09:49:54;4.10;99.90
7648;DHT22;3866;48.020;11.720;2024-02-23T09:52:21;4.00;99.90
7648;DHT22;3866;48.020;11.720;2024-02-23T09:54:49;3.80;99.90
7648;DHT22;3866;48.020;11.720;2024-02-23T09:57:16;3.60;99.90
7648;DHT22;3866;48.020;11.720;2024-02-23T09:59:44;3.60;99.90
7648;DHT22;3866;48.020;11.720;2024-02-23T10:02:17;3.60;99.90
7648;DHT22;3866;48.020;11.720;2024-02-23T10:04:44;3.60;99.90
7648;DHT22;3866;48.020;11.720;2024-02-23T10:07:15;3.60;99.90
7648;DHT22;3866;48.020;11.720;2024-02-23T10:09:42;3.60;99.90
7648;DHT22;3866;48.020;11.720;2024-02-23T10:12:09;3.70;99.90
7648;DHT22;3866;48.020;11.720;2024-02-23T10:14:36;3.80;99.90
7648;DHT22;3866;48.020;11.720;2024-02-23T10:17:03;3.90;99.90
7648;DHT22;3866;48.020;11.720;2024-02-23T10:19:33;3.90;99.90
7648;DHT22;3866;48.020;11.720;2024-02-23T10:22:00;3.90;99.90
7648;DHT22;3866;48.020;11.720;2024-02-23T10:24:29;3.90;99.90
7648;DHT22;3866;48.020;11.720;2024-02-23T10:26:56;3.90;99.90
7648;DHT22;3866;48.020;11.720;2024-02-23T10:29:23;3.90;99.90
7648;DHT22;3866;48.020;11.720;2024-02-23T10:31:51;3.70;99.90
7648;DHT22;3866;48.020;11.720;2024-02-23T10:34:19;3.70;99.90
7648;DHT22;3866;48.020;11.720;2024-02-23T10:36:46;3.60;99.90
7648;DHT22;3866;48.020;11.720;2024-02-23T10:39:16;3.50;99.90
7648;DHT22;3866;48.020;11.720;2024-02-23T10:41:50;3.60;99.90
7648;DHT22;3866;48.020;11.720;2024-02-23T10:44:20;3.60;99.90
7648;DHT22;3866;48.020;11.720;2024-02-23T10:46:49;3.50;99.90
7648;DHT22;3866;48.020;11.720;2024-02-23T10:49:17;3.60;99.90
7648;DHT22;3866;48.020;11.720;2024-02-23T10:51:47;3.60;99.90
7648;DHT22;3866;48.020;11.720;2024-02-23T10:54:15;3.60;99.90
7648;DHT22;3866;48.020;11.720;2024-02-23T10:56:48;3.60;99.90
7648;DHT22;3866;48.020;11.720;2024-02-23T10:59:16;3.50;99.90
7648;DHT22;3866;48.020;11.720;2024-02-23T11:01:45;3.70;99.90
7648;DHT22;3866;48.020;11.720;2024-02-23T11:04:15;3.60;99.90
7648;DHT22;3866;48.020;11.720;2024-02-23T11:06:42;3.60;99.90
7648;DHT22;3866;48.020;11.720;2024-02-23T11:09:15;3.70;99.90
7648;DHT22;3866;48.020;11.720;2024-02-23T11:11:53;3.80;99.90
7648;DHT22;3866;48.020;11.720;2024-02-23T11:14:29;3.90;99.90
7648;DHT22;3866;48.020;11.720;2024-02-23T11:16:58;4.10;99.90
7648;DHT22;3866;48.020;11.720;2024-02-23T11:19:32;4.00;99.90
7648;DHT22;3866;48.020;11.720;2024-02-23T11:22:01;3.90;99.90
7648;DHT22;3866;48.020;11.720;2024-02-23T11:24:29;3.80;99.90
7648;DHT22;3866;48.020;11.720;2024-02-23T11:26:58;3.60;99.90
7648;DHT22;3866;48.020;11.720;2024-02-23T11:29:26;3.70;99.90
7648;DHT22;3866;48.020;11.720;2024-02-23T11:31:55;3.80;99.90
7648;DHT22;3866;48.020;11.720;2024-02-23T11:34:27;3.90;99.90
7648;DHT22;3866;48.020;11.720;2024-02-23T11:36:54;3.90;99.90
7648;DHT22;3866;48.020;11.720;2024-02-23T11:39:22;3.80;99.90
7648;DHT22;3866;48.020;11.720;2024-02-23T11:41:49;3.80;99.90
7648;DHT22;3866;48.020;11.720;2024-02-23T11:44:18;3.90;99.90
7648;DHT22;3866;48.020;11.720;2024-02-23T11:46:44;4.00;99.90
7648;DHT22;3866;48.020;11.720;2024-02-23T11:49:14;3.80;99.90
7648;DHT22;3866;48.020;11.720;2024-02-23T11:51:41;3.90;99.90
7648;DHT22;3866;48.020;11.720;2024-02-23T11:54:10;3.90;99.90
7648;DHT22;3866;48.020;11.720;2024-02-23T11:56:37;3.90;99.90
7648;DHT22;3866;48.020;11.720;2024-02-23T11:59:04;3.90;99.90
7648;DHT22;3866;48.020;11.720;2024-02-23T12:01:32;3.90;99.90
7648;DHT22;3866;48.020;11.720;2024-02-23T12:03:59;3.90;99.90
7648;DHT22;3866;48.020;11.720;2024-02-23T12:06:27;3.90;99.90
7648;DHT22;3866;48.020;11.720;2024-02-23T12:08:58;3.80;99.90
7648;DHT22;3866;48.020;11.720;2024-02-23T12:11:25;3.70;99.90
7648;DHT22;3866;48.020;11.720;2024-02-23T12:13:53;3.70;99.90
7648;DHT22;3866;48.020;11.720;2024-02-23T12:16:20;3.80;99.90
7648;DHT22;3866;48.020;11.720;2024-02-23T12:18:54;4.00;99.90
7648;DHT22;3866;48.020;11.720;2024-02-23T12:21:23;3.80;99.90
7648;DHT22;3866;48.020;11.720;2024-02-23T12:23:50;3.70;99.90
7648;DHT22;3866;48.020;11.720;2024-02-23T12:26:18;3.70;99.90
7648;DHT22;3866;48.020;11.720;2024-02-23T12:28:45;3.70;99.90
7648;DHT22;3866;48.020;11.720;2024-02-23T12:31:12;3.60;99.90
7648;DHT22;3866;48.020;11.720;2024-02-23T12:33:41;3.60;99.90
7648;DHT22;3866;48.020;11.720;2024-02-23T12:36:15;3.60;99.90
7648;DHT22;3866;48.020;11.720;2024-02-23T12:38:43;3.60;99.90
7648;DHT22;3866;48.020;11.720;2024-02-23T12:41:10;3.70;99.90
7648;DHT22;3866;48.020;11.720;2024-02-23T12:43:37;3.60;99.90
7648;DHT22;3866;48.020;11.720;2024-02-23T12:46:04;3.70;99.90
7648;DHT22;3866;48.020;11.720;2024-02-23T12:48:32;3.80;99.90
7648;DHT22;3866;48.020;11.720;2024-02-23T12:50:59;3.70;99.90
7648;DHT22;3866;48.020;11.720;2024-02-23T12:53:35;3.70;99.90
7648;DHT22;3866;48.020;11.720;2024-02-23T12:56:04;3.70;99.90
7648;DHT22;3866;48.020;11.720;2024-02-23T12:58:31;3.80;99.90
7648;DHT22;3866;48.020;11.720;2024-02-23T13:00:58;3.80;99.90
7648;DHT22;3866;48.020;11.720;2024-02-23T13:03:25;3.80;99.90
7648;DHT22;3866;48.020;11.720;2024-02-23T13:05:53;4.00;99.90
7648;DHT22;3866;48.020;11.720;2024-02-23T13:08:20;4.00;99.90
7648;DHT22;3866;48.020;11.720;2024-02-23T13:10:49;3.90;99.90
7648;DHT22;3866;48.020;11.720;2024-02-23T13:13:16;3.80;99.90
7648;DHT22;3866;48.020;11.720;2024-02-23T13:15:43;3.70;99.90
7648;DHT22;3866;48.020;11.720;2024-02-23T13:18:10;3.70;99.90
7648;DHT22;3866;48.020;11.720;2024-02-23T13:20:38;3.80;99.90
7648;DHT22;3866;48.020;11.720;2024-02-23T13:23:07;3.70;99.90
7648;DHT22;3866;48.020;11.720;2024-02-23T13:25:34;3.80;99.90
7648;DHT22;3866;48.020;11.720;2024-02-23T13:28:02;3.80;99.90
7648;DHT22;3866;48.020;11.720;2024-02-23T13:30:30;3.70;99.90
7648;DHT22;3866;48.020;11.720;2024-02-23T13:32:57;3.70;99.90
7648;DHT22;3866;48.020;11.720;2024-02-23T13:35:24;3.80;99.90
7648;DHT22;3866;48.020;11.720;2024-02-23T13:37:51;3.70;99.90
7648;DHT22;3866;48.020;11.720;2024-02-23T13:40:18;3.60;99.90
7648;DHT22;3866;48.020;11.720;2024-02-23T13:42:45;3.70;99.90
7648;DHT22;3866;48.020;11.720;2024-02-23T13:45:16;3.70;99.90
7648;DHT22;3866;48.020;11.720;2024-02-23T13:47:56;3.80;99.90
7648;DHT22;3866;48.020;11.720;2024-02-23T13:50:23;3.90;99.90
7648;DHT22;3866;48.020;11.720;2024-02-23T13:52:50;3.80;99.90
7648;DHT22;3866;48.020;11.720;2024-02-23T13:55:17;3.70;99.90
7648;DHT22;3866;48.020;11.720;2024-02-23T13:57:46;3.60;99.90
7648;DHT22;3866;48.020;11.720;2024-02-23T14:00:13;3.70;99.90
7648;DHT22;3866;48.020;11.720;2024-02-23T14:02:42;3.70;99.90
7648;DHT22;3866;48.020;11.720;2024-02-23T14:05:10;3.70;99.90
7648;DHT22;3866;48.020;11.720;2024-02-23T14:07:37;3.70;99.90
7648;DHT22;3866;48.020;11.720;2024-02-23T14:10:05;3.70;99.90
7648;DHT22;3866;48.020;11.720;2024-02-23T14:12:33;3.80;99.90
7648;DHT22;3866;48.020;11.720;2024-02-23T14:15:00;3.90;99.90
7648;DHT22;3866;48.020;11.720;2024-02-23T14:17:27;3.90;99.90
7648;DHT22;3866;48.020;11.720;2024-02-23T14:19:55;3.80;99.90
7648;DHT22;3866;48.020;11.720;2024-02-23T14:22:22;3.80;99.90
7648;DHT22;3866;48.020;11.720;2024-02-23T14:24:49;3.80;99.90
7648;DHT22;3866;48.020;11.720;2024-02-23T14:27:16;3.80;99.90
7648;DHT22;3866;48.020;11.720;2024-02-23T14:29:43;3.80;99.90
7648;DHT22;3866;48.020;11.720;2024-02-23T14:32:09;3.50;99.90
7648;DHT22;3866;48.020;11.720;2024-02-23T14:34:36;3.50;99.90
7648;DHT22;3866;48.020;11.720;2024-02-23T14:37:06;3.50;99.90
7648;DHT22;3866;48.020;11.720;2024-02-23T14:39:35;3.50;99.90
7648;DHT22;3866;48.020;11.720;2024-02-23T14:42:02;3.40;99.90
7648;DHT22;3866;48.020;11.720;2024-02-23T14:44:30;3.30;99.90
7648;DHT22;3866;48.020;11.720;2024-02-23T14:46:56;3.30;99.90
7648;DHT22;3866;48.020;11.720;2024-02-23T14:49:23;3.30;99.90
7648;DHT22;3866;48.020;11.720;2024-02-23T14:51:50;3.20;99.90
7648;DHT22;3866;48.020;11.720;2024-02-23T14:54:18;3.10;99.90
7648;DHT22;3866;48.020;11.720;2024-02-23T14:56:45;3.20;99.90
7648;DHT22;3866;48.020;11.720;2024-02-23T14:59:12;3.30;99.90
7648;DHT22;3866;48.020;11.720;2024-02-23T15:01:39;3.40;99.90
7648;DHT22;3866;48.020;11.720;2024-02-23T15:04:07;3.40;99.90
7648;DHT22;3866;48.020;11.720;2024-02-23T15:06:34;3.40;99.90
7648;DHT22;3866;48.020;11.720;2024-02-23T15:09:02;3.40;99.90
7648;DHT22;3866;48.020;11.720;2024-02-23T15:11:30;3.40;99.90
7648;DHT22;3866;48.020;11.720;2024-02-23T15:13:57;3.40;99.90
7648;DHT22;3866;48.020;11.720;2024-02-23T15:16:24;3.40;99.90
7648;DHT22;3866;48.020;11.720;2024-02-23T15:18:51;3.30;99.90
7648;DHT22;3866;48.020;11.720;2024-02-23T15:21:18;3.20;99.90
7648;DHT22;3866;48.020;11.720;2024-02-23T15:23:45;3.10;99.90
7648;DHT22;3866;48.020;11.720;2024-02-23T15:26:12;3.10;99.90
7648;DHT22;3866;48.020;11.720;2024-02-23T15:28:40;3.10;99.90
7648;DHT22;3866;48.020;11.720;2024-02-23T15:31:08;2.90;99.90
7648;DHT22;3866;48.020;11.720;2024-02-23T15:33:35;2.90;99.90
7648;DHT22;3866;48.020;11.720;2024-02-23T15:36:05;3.00;99.90
7648;DHT22;3866;48.020;11.720;2024-02-23T15:38:34;2.90;99.90
7648;DHT22;3866;48.020;11.720;2024-02-23T15:41:01;2.90;99.90
7648;DHT22;3866;48.020;11.720;2024-02-23T15:43:28;2.90;99.90
7648;DHT22;3866;48.020;11.720;2024-02-23T15:45:56;2.90;99.90
7648;DHT22;3866;48.020;11.720;2024-02-23T15:48:26;2.90;99.90
7648;DHT22;3866;48.020;11.720;2024-02-23T15:50:53;2.80;99.90
7648;DHT22;3866;48.020;11.720;2024-02-23T15:53:21;2.80;99.90
7648;DHT22;3866;48.020;11.720;2024-02-23T15:55:48;2.80;99.90
7648;DHT22;3866;48.020;11.720;2024-02-23T15:58:15;2.70;99.90
7648;DHT22;3866;48.020;11.720;2024-02-23T16:00:45;2.60;99.90
7648;DHT22;3866;48.020;11.720;2024-02-23T16:03:13;2.70;99.90
7648;DHT22;3866;48.020;11.720;2024-02-23T16:05:42;2.60;99.90